Time;durP1;ratioP1;P1;durP2;ratioP2;P2;SDS_P1;SDS_P2;PMS_P1;PMS_P2;Temp;Humidity;BMP_temperature;BMP_pressure;BME280_temperature;BME280_humidity;BME280_pressure;Samples;Min_cycle;Max_cycle;Signal;HPM_P1;HPM_P2
2022/11/07 00:01:23;;;;;;;;;1.00;1.00;;;;;12.77;93.05;100806.31;4977532;28;45491;-68
2022/11/07 00:03:48;;;;;;;;;3.00;3.00;;;;;12.90;93.53;100828.63;4978016;28;45366;-68
2022/11/07 00:06:14;;;;;;;;;2.25;2.25;;;;;12.81;93.96;100802.47;4992410;28;45401;-68
2022/11/07 00:08:39;;;;;;;;;4.00;2.75;;;;;13.03;93.64;100834.00;4976750;28;46894;-67
2022/11/07 00:11:05;;;;;;;;;3.25;1.75;;;;;12.85;93.51;100803.97;4977421;28;45345;-68
2022/11/07 00:13:31;;;;;;;;;5.00;2.75;;;;;13.03;93.47;100842.03;4990760;28;45385;-68
2022/11/07 00:15:58;;;;;;;;;0.75;0.75;;;;;13.03;93.58;100846.53;4996895;28;45318;-67
2022/11/07 00:18:23;;;;;;;;;5.00;3.00;;;;;12.75;93.44;100806.44;4996578;28;46335;-67
2022/11/07 00:20:49;;;;;;;;;2.25;2.25;;;;;13.05;93.53;100848.16;4996240;28;45451;-68
2022/11/07 00:23:14;;;;;;;;;1.00;1.00;;;;;13.05;93.26;100847.28;4996845;28;45288;-68
2022/11/07 00:25:39;;;;;;;;;3.25;3.25;;;;;13.06;93.22;100844.47;4997024;28;45327;-67
2022/11/07 00:28:05;;;;;;;;;3.50;2.00;;;;;12.84;92.87;100798.72;4995513;28;47774;-67
2022/11/07 00:30:31;;;;;;;;;2.00;2.00;;;;;12.93;93.24;100819.53;4996771;28;45861;-68
2022/11/07 00:32:56;;;;;;;;;5.25;1.00;;;;;13.09;93.05;100838.94;4997057;28;45247;-68
2022/11/07 00:35:22;;;;;;;;;1.00;0.50;;;;;12.81;92.59;100778.38;4996796;28;45258;-68
2022/11/07 00:37:47;;;;;;;;;1.00;1.00;;;;;12.65;92.78;100767.84;4996957;28;45291;-68
2022/11/07 00:40:12;;;;;;;;;2.25;2.00;;;;;13.09;92.65;100838.06;4992932;28;45572;-68
2022/11/07 00:42:37;;;;;;;;;3.00;2.00;;;;;12.88;92.55;100808.28;4985973;28;45261;-68
2022/11/07 00:45:03;;;;;;;;;1.25;1.00;;;;;13.01;92.80;100811.81;4975734;28;45439;-67
2022/11/07 00:47:29;;;;;;;;;3.00;2.00;;;;;13.10;92.84;100821.91;4990805;28;45374;-68
2022/11/07 00:49:54;;;;;;;;;1.75;1.75;;;;;13.01;92.18;100808.28;4994688;28;45458;-67
2022/11/07 00:52:19;;;;;;;;;2.00;2.00;;;;;13.15;91.87;100823.41;4996694;28;45390;-68
2022/11/07 00:54:44;;;;;;;;;6.25;3.50;;;;;13.06;92.09;100820.38;4984299;28;45382;-68
2022/11/07 00:57:10;;;;;;;;;2.25;1.00;;;;;12.82;92.29;100769.41;4976753;28;45457;-68
2022/11/07 00:59:35;;;;;;;;;2.25;2.00;;;;;12.98;92.15;100795.09;4975117;28;45562;-68
2022/11/07 01:02:00;;;;;;;;;3.50;1.25;;;;;13.12;92.24;100817.28;4976919;28;45431;-68
2022/11/07 01:07:10;;;;;;;;;3.00;1.50;;;;;13.01;91.90;100798.44;4976432;28;45424;-68
2022/11/07 01:09:35;;;;;;;;;3.00;1.00;;;;;12.96;91.80;100788.03;4991165;28;45626;-68
2022/11/07 01:12:01;;;;;;;;;3.50;2.50;;;;;13.18;92.01;100821.34;4977641;28;45378;-68
2022/11/07 01:14:26;;;;;;;;;1.50;1.50;;;;;13.25;92.10;100828.03;4996452;28;45314;-68
2022/11/07 01:16:52;;;;;;;;;3.00;1.25;;;;;13.33;91.77;100827.47;4996162;28;46545;-68
2022/11/07 01:19:18;;;;;;;;;1.75;1.00;;;;;13.26;92.07;100835.06;4994734;28;45461;-68
2022/11/07 01:21:44;;;;;;;;;1.50;1.00;;;;;13.06;91.71;100793.59;4995141;28;45309;-69
2022/11/07 01:24:11;;;;;;;;;1.00;1.00;;;;;13.32;91.73;100840.97;4996544;28;45394;-68
2022/11/07 01:26:37;;;;;;;;;1.25;1.25;;;;;13.23;91.50;100813.88;4996278;28;46660;-68
2022/11/07 01:29:04;;;;;;;;;3.25;1.50;;;;;13.09;90.66;100793.41;4996253;28;45315;-68
2022/11/07 01:31:32;;;;;;;;;3.00;3.00;;;;;13.12;91.17;100795.88;4996376;28;45393;-68
2022/11/07 01:33:59;;;;;;;;;2.00;1.00;;;;;13.37;90.94;100845.09;4996198;28;45400;-68
2022/11/07 01:36:25;;;;;;;;;5.00;2.00;;;;;13.30;90.98;100828.53;4995943;28;45725;-68
2022/11/07 01:38:50;;;;;;;;;5.00;3.00;;;;;13.43;90.87;100847.34;4995969;28;45312;-68
2022/11/07 01:41:25;;;;;;;;;1.75;1.75;;;;;13.26;90.62;100812.81;4996186;28;45231;-68
2022/11/07 01:44:07;;;;;;;;;2.50;2.00;;;;;13.32;90.29;100822.22;4995760;28;45462;-68
2022/11/07 01:46:37;;;;;;;;;2.25;2.00;;;;;13.37;90.72;100842.41;4996078;28;45300;-68
2022/11/07 01:49:23;;;;;;;;;1.50;1.00;;;;;13.38;91.11;100841.44;4995615;28;45517;-68
2022/11/07 01:52:00;;;;;;;;;3.50;1.00;;;;;13.24;90.45;100822.75;4994974;28;45408;-68
2022/11/07 01:54:40;;;;;;;;;2.00;1.00;;;;;13.13;90.82;100796.72;4995551;28;45586;-68
2022/11/07 01:57:10;;;;;;;;;2.00;1.00;;;;;13.30;91.53;100846.44;4995147;28;45411;-68
2022/11/07 01:59:38;;;;;;;;;2.50;2.00;;;;;13.33;91.54;100840.03;5027256;28;45421;-68
2022/11/07 02:02:04;;;;;;;;;3.00;2.00;;;;;13.21;91.14;100826.53;4995479;28;45308;-68
2022/11/07 02:04:30;;;;;;;;;2.00;2.00;;;;;13.19;91.28;100812.38;4995384;28;45315;-68
2022/11/07 02:07:17;;;;;;;;;2.75;1.75;;;;;13.33;90.99;100854.25;4995108;28;46260;-68
2022/11/07 02:09:43;;;;;;;;;2.50;1.75;;;;;13.09;91.22;100832.69;4994800;28;45520;-68
2022/11/07 02:12:09;;;;;;;;;7.00;1.75;;;;;13.25;91.28;100862.84;4995252;28;45417;-68
2022/11/07 02:14:34;;;;;;;;;1.50;1.50;;;;;13.33;91.53;100870.34;4994945;28;45520;-68
2022/11/07 02:17:00;;;;;;;;;2.50;1.75;;;;;13.27;91.11;100854.72;4995106;28;45468;-68
2022/11/07 02:19:46;;;;;;;;;4.00;3.00;;;;;13.28;91.06;100865.31;4995053;28;45500;-68
2022/11/07 02:22:48;;;;;;;;;2.75;2.75;;;;;13.27;91.46;100866.28;4995577;28;45375;-68
2022/11/07 02:25:16;;;;;;;;;3.00;1.75;;;;;13.25;91.81;100867.34;4994681;28;45366;-68
2022/11/07 02:27:44;;;;;;;;;2.75;1.00;;;;;12.94;91.23;100807.84;4994984;28;45598;-68
2022/11/07 02:30:13;;;;;;;;;4.50;1.50;;;;;13.08;91.56;100834.53;5027249;28;45441;-68
2022/11/07 02:32:39;;;;;;;;;4.75;2.50;;;;;13.24;91.32;100850.41;4994922;28;45451;-68
2022/11/07 02:35:26;;;;;;;;;2.00;1.00;;;;;13.23;90.78;100847.84;4995015;28;45296;-67
2022/11/07 02:37:51;;;;;;;;;3.00;2.00;;;;;13.09;91.33;100825.53;5021289;28;45399;-68
2022/11/07 02:40:17;;;;;;;;;5.25;2.00;;;;;13.28;91.28;100859.06;5026683;28;45387;-68
2022/11/07 02:42:42;;;;;;;;;1.25;1.00;;;;;13.21;91.47;100849.75;4995389;28;45296;-68
2022/11/07 02:45:25;;;;;;;;;2.00;1.00;;;;;13.23;91.21;100850.53;4993610;28;45301;-68
2022/11/07 02:47:51;;;;;;;;;3.50;3.00;;;;;13.34;91.18;100857.81;4995064;28;46800;-68
2022/11/07 02:50:17;;;;;;;;;2.75;2.00;;;;;13.21;91.12;100839.91;4994875;28;45457;-68
2022/11/07 02:52:42;;;;;;;;;3.50;2.00;;;;;13.32;91.26;100852.56;4994663;28;45336;-68
2022/11/07 02:55:10;;;;;;;;;1.50;1.25;;;;;13.33;91.08;100843.56;4994932;28;45211;-68
2022/11/07 02:57:35;;;;;;;;;2.00;0.75;;;;;13.08;91.56;100813.13;4994428;28;45359;-68
2022/11/07 03:00:01;;;;;;;;;1.25;1.25;;;;;13.31;91.23;100845.50;4994436;28;45228;-68
2022/11/07 03:02:26;;;;;;;;;2.25;1.00;;;;;13.32;90.89;100839.19;4993578;28;45450;-68
2022/11/07 03:04:52;;;;;;;;;1.00;1.00;;;;;13.26;90.21;100839.59;4994688;28;45411;-68
2022/11/07 03:07:17;;;;;;;;;1.00;0.00;;;;;13.27;90.14;100835.97;4994659;28;45662;-67
2022/11/07 03:09:43;;;;;;;;;2.00;2.00;;;;;13.05;89.88;100797.25;4994074;28;45386;-68
2022/11/07 03:12:08;;;;;;;;;3.25;1.00;;;;;12.76;89.86;100749.22;4994569;28;45489;-68
2022/11/07 03:14:33;;;;;;;;;1.00;1.00;;;;;13.43;89.88;100855.38;4993833;28;45557;-68
2022/11/07 03:16:59;;;;;;;;;1.00;1.00;;;;;13.37;89.69;100861.16;4993503;28;46400;-68
2022/11/07 03:19:24;;;;;;;;;2.25;2.00;;;;;13.41;89.69;100865.34;4994609;28;45426;-68
2022/11/07 03:21:50;;;;;;;;;2.00;2.00;;;;;13.20;89.60;100832.84;4995497;28;45347;-68
2022/11/07 03:24:15;;;;;;;;;2.00;2.00;;;;;13.41;89.77;100876.06;4996935;28;45518;-68
2022/11/07 03:26:41;;;;;;;;;6.25;2.00;;;;;13.38;89.71;100862.88;4998167;28;47751;-67
2022/11/07 03:29:06;;;;;;;;;3.75;2.00;;;;;13.41;90.15;100877.88;4997442;28;45337;-68
2022/11/07 03:31:32;;;;;;;;;3.00;1.00;;;;;13.42;89.50;100883.13;4998475;28;45555;-66
2022/11/07 03:33:57;;;;;;;;;2.00;1.00;;;;;13.22;89.58;100843.44;4997049;28;45511;-68
2022/11/07 03:36:22;;;;;;;;;4.25;2.00;;;;;13.38;89.52;100857.53;4997916;28;46427;-68
2022/11/07 03:38:47;;;;;;;;;2.25;0.50;;;;;13.17;89.67;100811.59;4997818;28;45558;-68
2022/11/07 03:41:16;;;;;;;;;2.75;2.00;;;;;13.43;89.44;100839.31;4998101;28;45551;-68
2022/11/07 03:43:45;;;;;;;;;3.50;2.50;;;;;13.43;89.24;100855.38;4997615;28;45346;-68
2022/11/07 03:46:11;;;;;;;;;1.50;0.25;;;;;13.33;89.74;100838.19;4997855;28;45586;-68
2022/11/07 03:48:37;;;;;;;;;1.75;1.75;;;;;13.46;89.50;100851.63;4991296;28;45597;-68
2022/11/07 03:51:02;;;;;;;;;3.50;2.75;;;;;13.50;89.63;100849.63;4986474;28;45339;-68
2022/11/07 03:53:28;;;;;;;;;2.00;1.00;;;;;13.51;89.44;100843.25;4993233;28;45527;-68
2022/11/07 03:55:55;;;;;;;;;7.25;4.50;;;;;13.33;89.79;100818.59;4978041;28;45369;-68
2022/11/07 03:58:20;;;;;;;;;3.50;1.00;;;;;13.22;89.53;100819.34;4976615;28;45422;-68
2022/11/07 04:00:46;;;;;;;;;1.00;0.75;;;;;13.46;89.72;100849.81;4978143;28;45818;-68
2022/11/07 04:03:11;;;;;;;;;0.50;0.50;;;;;13.38;90.09;100829.88;4976834;28;45423;-68
2022/11/07 04:05:36;;;;;;;;;3.00;2.00;;;;;13.37;89.95;100831.69;4977612;28;45444;-68
2022/11/07 04:08:03;;;;;;;;;1.00;1.00;;;;;12.90;89.90;100745.63;4977849;28;45331;-68
2022/11/07 04:10:29;;;;;;;;;3.25;1.25;;;;;13.48;90.12;100847.00;4977953;28;45564;-68
2022/11/07 04:18:24;;;;;;;;;1.50;1.00;;;;;13.44;90.45;100845.50;4997302;28;45434;-68
2022/11/07 04:20:49;;;;;;;;;4.00;1.00;;;;;13.48;90.43;100841.66;4997192;28;45397;-68
2022/11/07 04:23:14;;;;;;;;;3.00;1.00;;;;;13.28;90.30;100818.91;4997240;28;45538;-69
2022/11/07 04:28:24;;;;;;;;;2.75;1.25;;;;;13.48;90.63;100849.69;4990278;28;45735;-69
2022/11/07 04:30:49;;;;;;;;;2.00;1.00;;;;;13.44;90.04;100849.06;4995604;28;45343;-68
2022/11/07 04:33:15;;;;;;;;;1.75;1.00;;;;;13.32;89.97;100824.91;4995925;28;45335;-69
2022/11/07 04:35:40;;;;;;;;;1.00;1.00;;;;;13.56;89.75;100855.38;4994801;28;46716;-68
2022/11/07 04:38:05;;;;;;;;;4.00;3.00;;;;;13.55;89.49;100860.84;4988179;28;45484;-68
2022/11/07 04:40:31;;;;;;;;;0.75;0.00;;;;;12.94;89.92;100754.28;4988466;28;45705;-68
2022/11/07 04:42:56;;;;;;;;;0.50;0.50;;;;;13.41;89.86;100829.66;4996643;28;45440;-68
2022/11/07 04:45:22;;;;;;;;;2.50;1.50;;;;;13.52;90.12;100848.50;4996588;28;46455;-68
2022/11/07 04:47:47;;;;;;;;;3.00;2.50;;;;;13.35;90.13;100835.41;4996945;28;45494;-68
2022/11/07 04:50:15;;;;;;;;;5.50;2.00;;;;;13.54;90.37;100856.47;4996041;28;45459;-68
2022/11/07 04:52:41;;;;;;;;;3.25;0.50;;;;;13.41;90.17;100835.03;4996366;28;45224;-68
2022/11/07 04:55:08;;;;;;;;;2.00;1.00;;;;;13.57;90.40;100866.97;4996305;28;47514;-68
2022/11/07 04:57:34;;;;;;;;;3.00;1.00;;;;;13.41;90.53;100833.19;4996758;28;45426;-67
2022/11/07 04:59:59;;;;;;;;;1.00;0.00;;;;;13.29;90.53;100823.28;4996576;28;45397;-67
2022/11/07 05:02:25;;;;;;;;;4.50;2.75;;;;;13.27;90.61;100818.03;4996690;28;45291;-68
2022/11/07 05:04:51;;;;;;;;;3.00;1.25;;;;;13.27;90.83;100807.34;4996898;28;46954;-67
2022/11/07 05:07:17;;;;;;;;;1.25;1.00;;;;;13.36;90.45;100815.72;4996688;28;45354;-68
2022/11/07 05:09:42;;;;;;;;;2.00;1.00;;;;;13.51;90.43;100845.94;4996698;28;45392;-67
2022/11/07 05:12:08;;;;;;;;;2.00;1.00;;;;;13.13;90.72;100789.56;4995944;28;45334;-68
2022/11/07 05:14:34;;;;;;;;;1.00;1.00;;;;;13.29;90.91;100815.25;4996109;28;46438;-67
2022/11/07 05:17:01;;;;;;;;;0.00;0.00;;;;;13.50;90.39;100842.41;4996155;28;45335;-68
2022/11/07 05:19:26;;;;;;;;;3.25;2.75;;;;;13.50;90.33;100841.56;4996409;28;45364;-68
2022/11/07 05:24:35;;;;;;;;;9.00;8.00;;;;;13.59;90.83;100852.50;4993930;28;45426;-68
2022/11/07 05:27:00;;;;;;;;;6.00;4.50;;;;;13.61;90.00;100858.59;4995885;28;45646;-68
2022/11/07 05:29:26;;;;;;;;;3.00;3.00;;;;;13.39;90.29;100843.16;4996568;28;45320;-68
2022/11/07 05:31:51;;;;;;;;;4.00;4.00;;;;;13.54;90.30;100869.88;5028500;28;45288;-68
2022/11/07 05:34:16;;;;;;;;;2.50;2.50;;;;;13.54;90.09;100867.19;4996046;28;46465;-68
2022/11/07 05:36:42;;;;;;;;;3.00;2.00;;;;;13.57;90.20;100880.38;4996273;28;45312;-66
2022/11/07 05:39:07;;;;;;;;;3.00;2.00;;;;;13.70;90.30;100886.59;5027388;28;45344;-67
2022/11/07 05:41:34;;;;;;;;;2.25;2.25;;;;;13.61;89.97;100873.81;5027794;28;45418;-67
2022/11/07 05:43:59;;;;;;;;;2.75;1.50;;;;;13.72;89.88;100891.84;4995398;28;46567;-67
2022/11/07 05:46:25;;;;;;;;;4.00;3.00;;;;;13.49;89.84;100858.59;4993567;28;45475;-67
2022/11/07 05:48:50;;;;;;;;;6.00;4.50;;;;;13.56;89.88;100867.94;4995873;28;45443;-67
2022/11/07 05:51:16;;;;;;;;;2.75;2.75;;;;;13.74;90.00;100892.56;4995789;28;45343;-67
2022/11/07 05:53:41;;;;;;;;;2.75;2.00;;;;;13.14;89.97;100798.44;4995266;28;45786;-68
2022/11/07 05:56:06;;;;;;;;;4.00;1.25;;;;;13.55;89.87;100866.19;4994516;28;45315;-68
2022/11/07 05:58:32;;;;;;;;;0.50;0.00;;;;;13.70;90.30;100889.28;5027224;28;45365;-67
2022/11/07 06:01:02;;;;;;;;;1.00;0.50;;;;;13.74;90.31;100884.53;4995154;28;45360;-67
2022/11/07 06:03:27;;;;;;;;;3.00;2.00;;;;;13.67;89.79;100857.31;4995290;28;45499;-67
2022/11/07 06:05:53;;;;;;;;;1.00;1.00;;;;;13.74;89.76;100885.41;4993648;28;45379;-67
2022/11/07 06:08:18;;;;;;;;;2.75;1.00;;;;;13.62;90.42;100863.00;4995030;28;45324;-67
2022/11/07 06:10:44;;;;;;;;;4.00;2.00;;;;;13.64;90.28;100870.91;4995356;28;45399;-67
2022/11/07 06:13:12;;;;;;;;;1.00;1.00;;;;;13.76;90.05;100893.34;4994821;28;47015;-67
2022/11/07 06:15:38;;;;;;;;;0.25;0.00;;;;;13.73;90.07;100888.19;4994907;28;45401;-67
2022/11/07 06:18:06;;;;;;;;;2.50;1.75;;;;;13.70;89.48;100885.72;4995068;28;45413;-66
2022/11/07 06:20:33;;;;;;;;;1.75;1.00;;;;;13.54;89.28;100868.03;5026699;28;45648;-67
2022/11/07 06:22:59;;;;;;;;;2.00;2.00;;;;;13.58;89.41;100895.50;4994688;28;47562;-67
2022/11/07 06:25:26;;;;;;;;;4.00;2.00;;;;;13.72;89.53;100908.78;4994904;28;45366;-68
2022/11/07 06:27:52;;;;;;;;;4.00;3.00;;;;;13.66;89.39;100890.44;4994609;28;45449;-68
2022/11/07 06:30:17;;;;;;;;;2.25;1.00;;;;;13.64;89.54;100889.69;4992685;28;45363;-67
2022/11/07 06:32:44;;;;;;;;;3.00;0.00;;;;;13.63;89.32;100896.88;4992299;28;45481;-67
2022/11/07 06:35:10;;;;;;;;;1.00;1.00;;;;;13.58;89.57;100890.97;4994770;28;45342;-68
2022/11/07 06:37:36;;;;;;;;;1.00;1.00;;;;;13.70;89.34;100904.47;4994348;28;45323;-68
2022/11/07 06:40:01;;;;;;;;;0.50;0.00;;;;;13.65;89.19;100891.41;4994268;28;45352;-68
2022/11/07 06:42:27;;;;;;;;;3.00;1.00;;;;;13.65;89.32;100894.09;4994491;28;46526;-67
2022/11/07 06:44:52;;;;;;;;;1.50;1.50;;;;;13.72;89.44;100906.09;4994711;28;45394;-66
2022/11/07 06:47:17;;;;;;;;;0.75;0.25;;;;;13.44;89.55;100857.09;4994742;28;45363;-67
2022/11/07 06:49:43;;;;;;;;;2.50;1.00;;;;;13.75;89.30;100913.06;4994516;28;45404;-66
2022/11/07 06:52:08;;;;;;;;;2.00;1.00;;;;;13.52;89.39;100879.81;4994363;28;46439;-67
2022/11/07 06:54:33;;;;;;;;;3.25;2.25;;;;;13.71;89.89;100896.34;4994102;28;45390;-67
2022/11/07 06:56:59;;;;;;;;;4.00;1.75;;;;;13.61;89.74;100889.91;4993144;28;45367;-71
2022/11/07 06:59:24;;;;;;;;;3.50;1.00;;;;;13.67;89.96;100905.56;4983421;28;45484;-69
2022/11/07 07:01:49;;;;;;;;;1.00;0.25;;;;;13.57;90.01;100883.91;4993397;28;45663;-70
2022/11/07 07:04:15;;;;;;;;;1.00;1.00;;;;;13.21;90.17;100826.53;4993578;28;45457;-67
2022/11/07 07:06:40;;;;;;;;;1.50;1.00;;;;;13.56;90.29;100876.81;4994376;28;45431;-68
2022/11/07 07:09:05;;;;;;;;;2.75;2.00;;;;;13.74;90.70;100911.34;4988350;28;45579;-68
2022/11/07 07:11:35;;;;;;;;;3.00;2.00;;;;;13.78;90.00;100912.88;4980516;28;46674;-67
2022/11/07 07:14:00;;;;;;;;;2.00;1.00;;;;;13.65;90.61;100891.41;4991370;28;45395;-67
2022/11/07 07:16:25;;;;;;;;;1.50;1.00;;;;;13.76;90.50;100898.69;4993848;28;45269;-68
2022/11/07 07:18:51;;;;;;;;;3.75;1.75;;;;;13.90;90.43;100921.84;4994071;28;45390;-67
2022/11/07 07:21:16;;;;;;;;;2.00;1.00;;;;;13.59;90.56;100867.69;4993271;28;45621;-67
2022/11/07 07:23:42;;;;;;;;;1.00;1.00;;;;;13.92;90.60;100933.34;4993990;28;45400;-68
2022/11/07 07:26:11;;;;;;;;;2.25;1.00;;;;;13.94;90.30;100934.94;4993033;28;45384;-68
2022/11/07 07:28:37;;;;;;;;;1.00;1.00;;;;;13.80;90.60;100911.75;4994217;28;45422;-68
2022/11/07 07:31:14;;;;;;;;;2.25;2.25;;;;;13.98;90.36;100938.25;4993733;28;45622;-68
2022/11/07 07:33:44;;;;;;;;;2.50;1.00;;;;;13.89;90.40;100910.28;4993945;28;45328;-68
2022/11/07 07:36:11;;;;;;;;;3.00;2.00;;;;;13.95;90.15;100919.69;4993811;28;45405;-68
2022/11/07 07:38:36;;;;;;;;;2.00;2.00;;;;;14.07;89.84;100934.91;4992557;28;45462;-68
2022/11/07 07:41:03;;;;;;;;;2.00;1.00;;;;;14.09;90.11;100934.81;4993568;28;45422;-68
2022/11/07 07:43:28;;;;;;;;;2.00;1.00;;;;;13.85;89.65;100897.19;4994023;28;45513;-68
2022/11/07 07:45:58;;;;;;;;;2.00;1.00;;;;;14.13;89.89;100941.66;4992795;28;45452;-69
2022/11/07 07:48:23;;;;;;;;;1.67;1.00;;;;;14.12;89.83;100929.25;4994169;28;45368;-68
2022/11/07 07:50:48;;;;;;;;;4.25;2.00;;;;;14.19;89.37;100938.56;4993539;28;45759;-68
2022/11/07 07:53:14;;;;;;;;;3.25;2.25;;;;;14.21;89.46;100927.72;4993144;28;45456;-68
2022/11/07 07:55:40;;;;;;;;;3.50;2.00;;;;;14.14;89.46;100924.63;4993867;28;45307;-68
2022/11/07 07:58:05;;;;;;;;;3.25;2.00;;;;;14.17;89.48;100923.53;4991989;28;45423;-68
2022/11/07 08:00:30;;;;;;;;;10.25;2.50;;;;;13.58;89.03;100833.84;4993441;28;45329;-67
2022/11/07 08:03:00;;;;;;;;;3.25;1.00;;;;;14.26;89.28;100944.34;4993707;28;45379;-68
2022/11/07 08:05:26;;;;;;;;;5.00;2.00;;;;;14.36;88.97;100953.47;4993322;28;45182;-68
2022/11/07 08:07:51;;;;;;;;;1.75;1.75;;;;;14.36;88.76;100945.41;4994189;28;45238;-67
2022/11/07 08:10:18;;;;;;;;;2.75;1.00;;;;;14.49;89.13;100960.63;4996780;28;46245;-67
2022/11/07 08:12:45;;;;;;;;;2.00;2.00;;;;;14.42;88.53;100933.38;4996556;28;45417;-68
2022/11/07 08:15:11;;;;;;;;;3.50;2.00;;;;;14.55;88.28;100944.06;4996787;28;45394;-68
2022/11/07 08:17:37;;;;;;;;;2.00;2.00;;;;;14.70;87.57;100961.78;4996780;28;45476;-68
2022/11/07 08:20:03;;;;;;;;;2.00;2.00;;;;;14.75;87.89;100951.56;4994319;28;45921;-68
2022/11/07 08:22:28;;;;;;;;;2.50;2.50;;;;;14.88;87.54;100956.03;5007889;28;45353;-68
2022/11/07 08:24:53;;;;;;;;;3.50;1.75;;;;;14.90;86.21;100951.38;5006588;28;45315;-67
2022/11/07 08:27:18;;;;;;;;;1.50;1.50;;;;;14.88;85.80;100947.97;4997245;28;45364;-68
2022/11/07 08:29:44;;;;;;;;;1.00;1.00;;;;;14.87;85.92;100963.19;4996361;28;46335;-67
2022/11/07 08:32:09;;;;;;;;;0.50;0.00;;;;;15.00;85.52;100970.38;4995827;28;45423;-67
2022/11/07 08:34:34;;;;;;;;;1.00;1.00;;;;;14.90;85.14;100954.06;4993869;28;45379;-69
2022/11/07 08:37:00;;;;;;;;;1.00;1.00;;;;;15.11;84.22;100973.09;4993839;28;45439;-67
2022/11/07 08:39:25;;;;;;;;;2.50;2.00;;;;;15.21;84.68;100978.63;4995256;28;46215;-67
2022/11/07 08:41:50;;;;;;;;;4.00;2.00;;;;;15.19;83.82;100959.09;4996337;28;45252;-68
2022/11/07 08:44:16;;;;;;;;;1.50;1.00;;;;;15.27;83.14;100957.53;4997049;28;45295;-68
2022/11/07 08:46:41;;;;;;;;;2.25;1.25;;;;;15.43;82.95;100967.97;4997182;28;45506;-69
2022/11/07 08:49:06;;;;;;;;;1.00;1.00;;;;;15.54;82.28;100971.69;4994216;28;47246;-67
2022/11/07 08:51:32;;;;;;;;;8.50;3.75;;;;;15.57;81.96;100971.44;4989654;28;45279;-67
2022/11/07 08:53:58;;;;;;;;;6.75;3.75;;;;;15.61;80.98;100956.78;4995227;28;45381;-67
2022/11/07 08:56:23;;;;;;;;;5.25;3.00;;;;;15.56;80.69;100954.47;4995144;28;45655;-68
2022/11/07 08:58:48;;;;;;;;;6.00;2.00;;;;;15.60;81.07;100949.69;4996029;28;45471;-68
2022/11/07 09:01:14;;;;;;;;;5.00;5.00;;;;;15.66;80.90;100965.34;4995092;28;45355;-68
2022/11/07 09:03:39;;;;;;;;;6.75;6.75;;;;;15.07;80.69;100880.28;4996386;28;45362;-68
2022/11/07 09:06:05;;;;;;;;;6.00;4.25;;;;;15.48;81.50;100959.56;4996650;28;45328;-69
2022/11/07 09:08:32;;;;;;;;;6.00;5.75;;;;;15.61;80.85;100983.69;4996033;28;46015;-69
2022/11/07 09:11:02;;;;;;;;;7.50;6.00;;;;;15.57;80.89;100991.09;4996390;28;45514;-69
2022/11/07 09:13:28;;;;;;;;;7.25;5.75;;;;;15.43;81.33;100973.34;4996197;28;45468;-68
2022/11/07 09:15:58;;;;;;;;;3.00;3.00;;;;;15.58;81.45;100997.38;4995999;28;45352;-68
2022/11/07 09:18:25;;;;;;;;;4.25;3.75;;;;;15.54;81.17;101001.25;4995662;28;46605;-67
2022/11/07 09:20:51;;;;;;;;;7.50;3.25;;;;;15.45;81.28;100983.97;4994570;28;45354;-67
2022/11/07 09:23:16;;;;;;;;;2.00;2.00;;;;;15.60;81.51;101006.16;4995649;28;45574;-68
2022/11/07 09:25:42;;;;;;;;;3.25;2.50;;;;;15.42;81.41;101003.03;4995685;28;45279;-68
2022/11/07 09:28:08;;;;;;;;;1.67;1.67;;;;;15.45;82.11;101016.25;4995214;28;45440;-68
2022/11/07 09:30:33;;;;;;;;;2.75;2.50;;;;;15.31;81.86;100982.34;4994863;28;45691;-68
2022/11/07 09:32:59;;;;;;;;;3.50;3.50;;;;;15.48;81.75;100990.00;4995613;28;45388;-68
2022/11/07 09:35:25;;;;;;;;;2.75;2.75;;;;;15.54;81.57;100995.88;4995729;28;45491;-68
2022/11/07 09:37:50;;;;;;;;;4.00;2.00;;;;;15.58;81.18;100973.16;4995729;28;45382;-68
2022/11/07 09:40:28;;;;;;;;;2.75;0.00;;;;;15.70;80.18;100979.44;4995620;28;45374;-67
2022/11/07 09:43:19;;;;;;;;;1.67;1.67;;;;;15.90;80.33;101002.97;4995820;28;45326;-69
2022/11/07 09:45:57;;;;;;;;;3.00;2.00;;;;;15.84;79.09;100989.16;4995247;28;45413;-68
2022/11/07 09:48:27;;;;;;;;;3.00;1.00;;;;;15.69;79.27;100980.41;4995740;28;46633;-67
2022/11/07 09:50:53;;;;;;;;;1.67;1.33;;;;;15.66;80.17;100986.88;4995378;28;45240;-68
2022/11/07 09:53:21;;;;;;;;;1.00;1.00;;;;;15.82;80.36;101013.47;4995820;28;45521;-67
2022/11/07 09:56:02;;;;;;;;;2.00;2.00;;;;;15.73;79.56;100998.84;5011117;28;45359;-68
2022/11/07 09:58:50;;;;;;;;;5.00;3.50;;;;;15.57;80.49;100977.66;4995298;28;45459;-68
2022/11/07 10:01:18;;;;;;;;;3.00;3.00;;;;;15.72;80.19;101001.66;4994956;28;45350;-67
2022/11/07 10:03:43;;;;;;;;;4.25;1.75;;;;;15.53;80.35;100956.53;4995381;28;45558;-67
2022/11/07 10:06:32;;;;;;;;;2.00;1.00;;;;;15.78;80.18;100990.44;4995949;28;45328;-68
2022/11/07 10:09:10;;;;;;;;;1.00;1.00;;;;;15.75;80.01;101001.44;4995358;28;46102;-66
2022/11/07 10:11:47;;;;;;;;;5.00;3.00;;;;;15.79;80.60;101005.59;4995244;28;45449;-67
2022/11/07 10:14:39;;;;;;;;;4.75;3.50;;;;;15.59;81.23;100986.47;4994865;28;45490;-73
2022/11/07 10:17:23;;;;;;;;;2.75;2.75;;;;;15.70;80.41;101001.78;4994899;28;45571;-66
2022/11/07 10:20:15;;;;;;;;;1.75;1.00;;;;;15.71;81.04;100995.44;4994366;28;46407;-67
2022/11/07 10:23:11;;;;;;;;;1.50;1.25;;;;;15.75;81.02;100999.63;4994704;28;45291;-67
2022/11/07 10:25:58;;;;;;;;;3.00;2.00;;;;;15.76;80.35;100982.50;4994519;28;45344;-67
2022/11/07 10:28:26;;;;;;;;;2.00;2.00;;;;;15.89;80.43;100989.66;4994749;28;45231;-67
2022/11/07 10:30:54;;;;;;;;;1.50;1.50;;;;;15.38;80.30;100910.19;5009090;28;45722;-67
2022/11/07 10:33:51;;;;;;;;;0.00;0.00;;;;;15.91;79.91;100991.25;4994748;28;45353;-68
2022/11/07 10:36:24;;;;;;;;;3.00;1.75;;;;;16.03;80.71;100986.72;4934117;28;45374;-67
2022/11/07 10:38:49;;;;;;;;;3.25;3.25;;;;;16.06;80.15;100975.72;4933859;28;45484;-67
2022/11/07 10:41:21;;;;;;;;;4.00;2.25;;;;;16.19;80.03;100989.06;4933507;28;46043;-68
2022/11/07 10:43:55;;;;;;;;;3.50;3.25;;;;;16.15;79.77;100979.50;4933550;28;45423;-68
2022/11/07 10:46:31;;;;;;;;;2.25;1.25;;;;;16.16;79.17;100980.41;4933551;28;45400;-67
2022/11/07 10:49:00;;;;;;;;;2.00;2.00;;;;;16.12;78.53;100999.44;4933911;28;45497;-67
2022/11/07 10:51:52;;;;;;;;;3.25;2.25;;;;;16.11;78.11;100976.22;4933724;28;46436;-67
2022/11/07 10:54:29;;;;;;;;;1.00;1.00;;;;;16.19;78.80;100983.69;4932534;28;45432;-67
2022/11/07 10:57:03;;;;;;;;;3.50;1.75;;;;;16.43;78.31;100988.09;4932980;28;45435;-68
2022/11/07 10:59:31;;;;;;;;;1.75;1.75;;;;;16.52;77.95;100998.13;4933417;28;45442;-68
2022/11/07 11:01:59;;;;;;;;;3.00;1.00;;;;;16.47;77.49;100997.63;4917682;28;45754;-67
2022/11/07 11:04:30;;;;;;;;;5.25;4.00;;;;;16.48;77.53;100994.81;4933829;28;45544;-67
2022/11/07 11:07:01;;;;;;;;;1.50;1.25;;;;;16.54;77.22;100998.84;4933737;28;45365;-67
2022/11/07 11:09:34;;;;;;;;;4.00;3.50;;;;;16.74;76.97;100993.69;4933826;28;45475;-67
2022/11/07 11:12:13;;;;;;;;;2.00;1.67;;;;;16.74;75.59;100934.44;4956374;28;46825;-66
2022/11/07 11:14:39;;;;;;;;;3.25;3.00;;;;;17.28;75.03;100967.72;4993918;28;45430;-67
2022/11/07 11:17:05;;;;;;;;;3.75;2.00;;;;;17.51;73.61;100971.16;4994385;28;45269;-67
2022/11/07 11:19:47;;;;;;;;;2.00;1.67;;;;;17.71;73.47;100973.97;4994159;28;45347;-67
2022/11/07 11:22:19;;;;;;;;;2.25;2.00;;;;;17.79;71.09;100971.50;5024082;28;45602;-66
2022/11/07 11:24:44;;;;;;;;;1.25;1.25;;;;;17.78;71.29;100954.44;4993327;28;45391;-67
2022/11/07 11:27:16;;;;;;;;;4.00;1.67;;;;;17.89;70.41;100963.44;4979113;28;45583;-68
2022/11/07 11:29:56;;;;;;;;;3.50;2.00;;;;;17.93;69.82;100967.63;4976176;28;45436;-67
2022/11/07 11:32:37;;;;;;;;;2.00;1.75;;;;;17.79;70.42;100956.16;4973990;28;46377;-66
2022/11/07 11:35:20;;;;;;;;;2.75;2.25;;;;;17.85;69.88;100965.53;4989203;28;45543;-65
2022/11/07 11:37:56;;;;;;;;;2.00;2.00;;;;;17.77;69.50;100958.09;4974703;28;45363;-68
2022/11/07 11:40:22;;;;;;;;;1.33;0.33;;;;;17.93;69.81;100957.66;4974412;28;45281;-67
2022/11/07 11:43:02;;;;;;;;;3.00;1.67;;;;;18.06;69.28;100957.47;4973090;28;46719;-67